Carangola, Brazil
Current Conditions -  °F | °C
As of 4:00 PM on Friday 31 Oct 2014 (Local Time) from SBCP Reporting Station
Clear Clear  
Wind Chill: 82°   Ceiling: Unl
Heat Index: 87°   Visibility: 6mi
Dew Point: 72°   Wind: 30mph
Humidity: 70%   Direction: 70°ENE
Pressure: 29.91"   Gusts: NA
Location:  20.74°S, 42.04°W
Report Text: SBCP 311800Z 07026KT CAVOK 28/22 Q1013
Loading
Personal Weather Stations






























Interactive Weather Map
Tropical Storm Tracking
New forecast layout! Learn more

10-Day Weather Forecast

Advertisements
Track Severe Weather on mobile